EIDW Airport Information

Runway Information
Runway 10 Length 8652 ft width 148 ft
Elevation 242 ft Threshold 0 ft Heading 95
Runway 28 Length 8652 ft Width 148 ft
Elevation 202 ft Threshold 0 ft Heading 275
Runway 11 Length 4393 ft width 200 ft
Elevation 217 ft Threshold 279 ft Heading 105
Runway 29 Length 4393 ft Width 200 ft
Elevation 216 ft Threshold 0 ft Heading 285
Runway 16 Length 6798 ft width 200 ft
Elevation 217 ft Threshold 0 ft Heading 157
Runway 34 Length 6798 ft Width 200 ft
Elevation 202 ft Threshold 0 ft Heading 337
Airport Frequencies
Type APP Name APP Frequency 121.1 MHZ
Type ATIS Name ATIS Frequency 124.525 MHZ
Type CLD Name CLNC DEL Frequency 121.875 MHZ
Type GND Name GND Frequency 121.8 MHZ
Type INFO Name FIS Frequency 118.5 MHZ
Type TWR Name TWR Frequency 118.6 MHZ
Airport Navaids
Type VOR-DME Name Dublin Frequency 111200 KHZ
Type VOR-DME Name Dublin Frequency 114900 KHZ
Type NDB Name Garristown Frequency 407 KHZ
Type NDB-DME Name Gormanston Frequency 334 KHZ
Type DME Name Dublin Frequency 108900 KHZ
Type NDB Name Killiney Frequency 378 KHZ
Type NDB Name Rush Frequency 326 KHZ
Airport Weather Information & NOTAM
ADDS - METARS form results

(1116 UTC 18 September 2020)
Data provider http://aviationweather.gov/metar/data/
 
METAR text: EIDW 181100Z 07015KT 9999 FEW015 BKN018 15/11 Q1026 NOSIG
Conditions at: EIDW (DUBLIN AIRPORT , IE) observed 1100 UTC 18 September 2020
Temperature: 15.0°C (59°F)
Dewpoint: 11.0°C (52°F) [RH = 77%]
Pressure (altimeter): 30.30 inches Hg (1026.0 mb)
Winds: from the ENE (70 degrees) at 17 MPH (15 knots; 7.7 m/s)
Visibility: 6 or more miles (10+ km)
Ceiling: 1800 feet AGL
Clouds: few clouds at 1500 feet AGL
broken clouds at 1800 feet AGL
Weather: no significant weather observed at this time

METAR text: EIDW 181030Z 07018KT 9999 FEW010 SCT180 15/11 Q1026 NOSIG
Conditions at: EIDW (DUBLIN AIRPORT , IE) observed 1030 UTC 18 September 2020
Temperature: 15.0°C (59°F)
Dewpoint: 11.0°C (52°F) [RH = 77%]
Pressure (altimeter): 30.30 inches Hg (1026.0 mb)
Winds: from the ENE (70 degrees) at 21 MPH (18 knots; 9.3 m/s)
Visibility: 6 or more miles (10+ km)
Ceiling: at least 12,000 feet AGL
Clouds: few clouds at 1000 feet AGL
scattered clouds at 18000 feet AGL
Weather: no significant weather observed at this time

Forecast for: EIDW (DUBLIN AIRPORT , IE)
Text: TAF EIDW 181100Z 1812/1912 07018KT 9999 FEW010
Forecast period: 1200 UTC 18 September 2020 to 1200 UTC 19 September 2020
Forecast type: FROM: standard forecast or significant change
Winds: from the ENE (70 degrees) at 21 MPH (18 knots; 9.3 m/s)
Visibility: 6 or more miles (10+ km)
Ceiling: at least 12,000 feet AGL
Clouds: few clouds at 1000 feet AGL
Weather: no significant weather forecast for this period